createdAt,value
2018-07-23T00:00:17.612Z,17.71
2018-07-23T00:02:46.768Z,17.74
2018-07-23T00:05:16.007Z,17.74
2018-07-23T00:07:45.311Z,17.73
2018-07-23T00:10:14.509Z,17.73
2018-07-23T00:12:43.666Z,17.71
2018-07-23T00:15:12.902Z,17.70
2018-07-23T00:17:42.072Z,17.71
2018-07-23T00:20:11.297Z,17.72
2018-07-23T00:22:40.457Z,17.70
2018-07-23T00:25:09.765Z,17.76
2018-07-23T00:27:38.958Z,17.71
2018-07-23T00:30:08.230Z,17.68
2018-07-23T00:32:37.957Z,17.65
2018-07-23T00:35:07.411Z,17.60
2018-07-23T00:37:36.544Z,17.64
2018-07-23T00:40:05.783Z,17.64
2018-07-23T00:42:35.016Z,17.62
2018-07-23T00:45:04.388Z,17.63
2018-07-23T00:47:33.604Z,17.61
2018-07-23T00:50:02.814Z,17.62
2018-07-23T00:52:31.985Z,17.64
2018-07-23T00:55:01.383Z,17.60
2018-07-23T00:57:30.643Z,17.61
2018-07-23T01:00:00.035Z,17.59
2018-07-23T01:02:29.269Z,17.58
2018-07-23T01:04:58.449Z,17.55
2018-07-23T01:07:27.628Z,17.60
2018-07-23T01:09:56.812Z,17.58
2018-07-23T01:12:29.154Z,17.61
2018-07-23T01:14:58.329Z,17.57
2018-07-23T01:17:27.708Z,17.56
2018-07-23T01:19:57.968Z,17.57
2018-07-23T01:22:27.956Z,17.60
2018-07-23T01:24:58.128Z,17.56
2018-07-23T01:27:27.284Z,17.59
2018-07-23T01:29:56.536Z,17.62
2018-07-23T01:32:25.710Z,17.65
2018-07-23T01:34:54.906Z,17.60
2018-07-23T01:37:24.048Z,17.58
2018-07-23T01:39:53.420Z,17.57
2018-07-23T01:42:22.733Z,17.55
2018-07-23T01:44:52.668Z,17.53
2018-07-23T01:47:21.823Z,17.59
2018-07-23T01:49:51.001Z,17.54
2018-07-23T01:52:20.333Z,17.52
2018-07-23T01:54:49.562Z,17.51
2018-07-23T01:57:18.846Z,17.51
2018-07-23T01:59:48.082Z,17.50
2018-07-23T02:02:17.251Z,17.48
2018-07-23T02:04:46.469Z,17.48
2018-07-23T02:07:15.626Z,17.47
2018-07-23T02:09:44.818Z,17.47
2018-07-23T02:12:14.098Z,17.48
2018-07-23T02:14:43.268Z,17.51
2018-07-23T02:17:12.441Z,17.50
2018-07-23T02:19:41.667Z,17.49
2018-07-23T02:22:10.878Z,17.52
2018-07-23T02:24:40.051Z,17.50
2018-07-23T02:27:09.392Z,17.49
2018-07-23T02:29:38.557Z,17.52
2018-07-23T02:32:07.762Z,17.51
2018-07-23T02:34:36.984Z,17.51
2018-07-23T02:37:06.434Z,17.56
2018-07-23T02:39:36.114Z,17.57
2018-07-23T02:42:05.711Z,17.55
2018-07-23T02:44:34.902Z,17.53
2018-07-23T02:47:04.058Z,17.52
2018-07-23T02:49:33.257Z,17.53
2018-07-23T02:52:02.445Z,17.54
2018-07-23T02:54:31.599Z,17.53
2018-07-23T02:57:01.504Z,17.53
2018-07-23T02:59:31.042Z,17.51
2018-07-23T03:02:00.241Z,17.52
2018-07-23T03:04:29.393Z,17.52
2018-07-23T03:06:58.576Z,17.54
2018-07-23T03:09:27.734Z,17.55
2018-07-23T03:11:56.982Z,17.55
2018-07-23T03:14:26.176Z,17.56
2018-07-23T03:16:55.409Z,17.56
2018-07-23T03:19:24.615Z,17.57
2018-07-23T03:21:53.826Z,17.58
2018-07-23T03:24:23.018Z,17.57
2018-07-23T03:26:52.497Z,17.60
2018-07-23T03:29:21.618Z,17.60
2018-07-23T03:31:51.442Z,17.59
2018-07-23T03:34:20.729Z,17.60
2018-07-23T03:36:49.944Z,17.64
2018-07-23T03:39:19.108Z,17.64
2018-07-23T03:41:48.293Z,17.63
2018-07-23T03:44:17.473Z,17.62
2018-07-23T03:46:46.630Z,17.64
2018-07-23T03:49:15.834Z,17.65
2018-07-23T03:51:45.024Z,17.69
2018-07-23T03:54:14.225Z,17.76
2018-07-23T03:56:43.425Z,17.85
2018-07-23T03:59:12.598Z,17.75
2018-07-23T04:01:41.740Z,17.75
2018-07-23T04:04:10.973Z,17.76
2018-07-23T04:06:40.131Z,17.76
2018-07-23T04:09:09.517Z,17.78
2018-07-23T04:11:38.716Z,17.80
2018-07-23T04:14:07.936Z,17.79
2018-07-23T04:16:37.094Z,17.79
2018-07-23T04:19:06.487Z,17.82
2018-07-23T04:21:35.713Z,17.82
2018-07-23T04:24:04.964Z,17.78
2018-07-23T04:26:34.148Z,17.80
2018-07-23T04:29:03.333Z,17.82
2018-07-23T04:31:32.494Z,17.85
2018-07-23T04:34:01.649Z,17.84
2018-07-23T04:36:30.826Z,17.84
2018-07-23T04:39:00.078Z,17.84
2018-07-23T04:41:29.289Z,17.84
2018-07-23T04:43:59.061Z,17.90
2018-07-23T04:46:28.269Z,17.91
2018-07-23T04:48:57.501Z,17.91
2018-07-23T04:51:26.692Z,17.91
2018-07-23T04:53:55.856Z,17.94
2018-07-23T04:56:25.057Z,17.98
2018-07-23T04:58:54.237Z,17.98
2018-07-23T05:01:23.477Z,18.01
2018-07-23T05:03:52.674Z,18.00
2018-07-23T05:06:21.852Z,18.07
2018-07-23T05:08:51.085Z,18.03
2018-07-23T05:11:20.289Z,18.04
2018-07-23T05:13:49.461Z,18.08
2018-07-23T05:16:18.634Z,18.10
2018-07-23T05:18:47.812Z,18.17
2018-07-23T05:21:17.042Z,18.14
2018-07-23T05:23:46.257Z,18.17
2018-07-23T05:26:15.400Z,18.14
2018-07-23T05:28:44.533Z,18.15
2018-07-23T05:31:13.689Z,18.18
2018-07-23T05:33:42.846Z,18.15
2018-07-23T05:36:12.017Z,18.12
2018-07-23T05:38:41.209Z,18.13
2018-07-23T05:41:10.441Z,18.20
2018-07-23T05:43:39.573Z,18.16
2018-07-23T05:46:08.747Z,18.17
2018-07-23T05:48:37.924Z,18.16
2018-07-23T05:51:07.255Z,18.16
2018-07-23T05:53:36.453Z,18.23
2018-07-23T05:56:06.088Z,18.19
2018-07-23T05:58:35.232Z,18.18
2018-07-23T06:01:05.428Z,18.22
2018-07-23T06:03:36.328Z,18.21
2018-07-23T06:06:05.581Z,18.27
2018-07-23T06:08:34.789Z,18.27
2018-07-23T06:11:03.984Z,18.28
2018-07-23T06:13:33.492Z,18.27
2018-07-23T06:16:03.583Z,18.32
2018-07-23T06:18:32.860Z,18.29
2018-07-23T06:21:02.054Z,18.27
2018-07-23T06:23:31.298Z,18.28
2018-07-23T06:26:00.501Z,18.33
2018-07-23T06:28:29.665Z,18.36
2018-07-23T06:30:58.868Z,18.36
2018-07-23T06:33:28.068Z,18.39
2018-07-23T06:35:57.256Z,18.45
2018-07-23T06:38:26.461Z,18.30
2018-07-23T06:40:55.717Z,18.45
2018-07-23T06:43:24.941Z,18.49
2018-07-23T06:45:54.149Z,18.56
2018-07-23T06:48:23.326Z,18.60
2018-07-23T06:50:52.496Z,18.64
2018-07-23T06:53:21.720Z,18.74
2018-07-23T06:55:50.881Z,18.76
2018-07-23T06:58:20.148Z,18.82
2018-07-23T07:00:49.322Z,18.91
2018-07-23T07:03:18.574Z,18.94
2018-07-23T07:05:47.667Z,18.97
2018-07-23T07:08:16.917Z,19.02
2018-07-23T07:10:46.093Z,19.11
2018-07-23T07:13:15.278Z,19.22
2018-07-23T07:15:44.468Z,19.31
2018-07-23T07:18:13.663Z,19.37
2018-07-23T07:20:42.825Z,19.48
2018-07-23T07:23:12.014Z,19.55
2018-07-23T07:25:41.226Z,19.65
2018-07-23T07:28:10.451Z,19.69
2018-07-23T07:30:40.829Z,19.66
2018-07-23T07:33:11.041Z,19.51
2018-07-23T07:35:40.212Z,19.66
2018-07-23T07:38:09.428Z,19.67
2018-07-23T07:40:38.743Z,19.67
2018-07-23T07:43:08.094Z,19.70
2018-07-23T07:45:37.445Z,19.76
2018-07-23T07:48:06.796Z,19.81
2018-07-23T07:50:35.960Z,19.87
2018-07-23T07:53:05.211Z,19.94
2018-07-23T07:55:34.355Z,20.05
2018-07-23T07:58:03.587Z,20.13
2018-07-23T08:00:32.778Z,20.24
2018-07-23T08:03:01.900Z,20.27
2018-07-23T08:05:31.077Z,20.30
2018-07-23T08:08:00.240Z,20.29
2018-07-23T08:10:29.421Z,20.27
2018-07-23T08:12:58.643Z,20.28
2018-07-23T08:15:27.846Z,20.30
2018-07-23T08:17:57.074Z,20.31
2018-07-23T08:20:26.215Z,20.37
2018-07-23T08:22:55.388Z,20.47
2018-07-23T08:25:24.576Z,20.57
2018-07-23T08:27:53.825Z,20.69
2018-07-23T08:30:22.944Z,20.74
2018-07-23T08:32:52.195Z,20.76
2018-07-23T08:35:22.932Z,20.80
2018-07-23T08:37:52.150Z,20.78
2018-07-23T08:40:21.340Z,20.83
2018-07-23T08:42:50.536Z,20.92
2018-07-23T08:45:19.723Z,20.99
2018-07-23T08:47:48.845Z,21.02
2018-07-23T08:50:18.006Z,21.04
2018-07-23T08:52:47.162Z,21.15
2018-07-23T08:55:16.365Z,21.20
2018-07-23T08:57:45.571Z,21.29
2018-07-23T09:03:17.753Z,21.59
2018-07-23T09:05:46.898Z,21.82
2018-07-23T09:08:16.031Z,22.01
2018-07-23T09:10:45.190Z,22.24
2018-07-23T09:13:14.308Z,22.34
2018-07-23T09:15:43.539Z,22.47
2018-07-23T09:18:12.841Z,22.62
2018-07-23T09:20:42.003Z,22.61
2018-07-23T09:23:11.133Z,22.75
2018-07-23T09:25:46.629Z,22.87
2018-07-23T09:28:16.996Z,22.87
2018-07-23T09:30:51.587Z,22.99
2018-07-23T09:33:22.070Z,23.00
2018-07-23T09:35:51.906Z,23.26
2018-07-23T09:38:21.897Z,23.66
2018-07-23T09:40:51.243Z,24.03
2018-07-23T09:43:20.385Z,24.13
2018-07-23T09:45:50.572Z,24.17
2018-07-23T09:48:19.674Z,24.56
2018-07-23T09:50:48.816Z,24.84
2018-07-23T09:53:17.993Z,24.73
2018-07-23T09:55:47.141Z,24.88
2018-07-23T09:58:16.282Z,25.05
2018-07-23T10:00:50.841Z,25.19
2018-07-23T10:03:20.056Z,25.29
2018-07-23T10:05:49.110Z,25.35
2018-07-23T10:08:18.266Z,25.42
2018-07-23T10:10:47.434Z,25.29
2018-07-23T10:13:16.568Z,25.32
2018-07-23T10:15:45.728Z,25.36
2018-07-23T10:18:14.845Z,25.36
2018-07-23T10:20:44.080Z,25.30
2018-07-23T10:23:13.238Z,25.37
2018-07-23T10:25:42.340Z,25.18
2018-07-23T10:28:11.466Z,25.20
2018-07-23T10:30:40.645Z,25.37
2018-07-23T10:33:09.813Z,25.51
2018-07-23T10:35:39.460Z,25.73
2018-07-23T10:38:08.618Z,25.91
2018-07-23T10:40:37.728Z,25.92
2018-07-23T10:43:07.001Z,25.87
2018-07-23T10:45:36.179Z,25.95
2018-07-23T10:48:05.414Z,25.77
2018-07-23T10:50:34.644Z,25.77
2018-07-23T10:53:03.773Z,25.54
2018-07-23T10:55:32.934Z,25.41
2018-07-23T10:58:02.098Z,25.42
2018-07-23T11:00:31.232Z,25.57
2018-07-23T11:03:00.341Z,25.83
2018-07-23T11:05:29.509Z,26.04
2018-07-23T11:07:58.633Z,26.13
2018-07-23T11:10:27.783Z,26.02
2018-07-23T11:12:56.934Z,26.05
2018-07-23T11:15:26.077Z,25.86
2018-07-23T11:17:55.173Z,25.78
2018-07-23T11:20:24.277Z,25.98
2018-07-23T11:22:53.487Z,26.04
2018-07-23T11:25:38.874Z,25.87
2018-07-23T11:27:51.809Z,25.75
2018-07-23T11:30:20.965Z,25.69
2018-07-23T11:32:51.834Z,25.63
2018-07-23T11:35:20.960Z,25.70
2018-07-23T11:37:50.660Z,25.86
2018-07-23T11:40:19.808Z,26.19
2018-07-23T11:42:49.065Z,26.52
2018-07-23T11:45:18.183Z,26.83
2018-07-23T11:47:47.350Z,27.18
2018-07-23T11:50:16.504Z,27.56
2018-07-23T11:52:45.648Z,28.05
2018-07-23T11:55:14.763Z,28.31
2018-07-23T11:57:43.867Z,28.31
2018-07-23T12:00:12.982Z,28.56
2018-07-23T12:02:42.079Z,28.46
2018-07-23T12:05:11.837Z,28.29
2018-07-23T12:07:40.960Z,28.52
2018-07-23T12:10:10.040Z,28.64
2018-07-23T12:12:39.210Z,28.99
2018-07-23T12:15:08.548Z,28.92
2018-07-23T12:17:37.672Z,28.90
2018-07-23T12:20:06.789Z,28.85
2018-07-23T12:22:35.917Z,28.74
2018-07-23T12:25:05.160Z,28.67
2018-07-23T12:27:34.395Z,28.68
2018-07-23T12:30:03.633Z,28.90
2018-07-23T12:32:32.910Z,28.91
2018-07-23T12:35:02.016Z,28.55
2018-07-23T12:37:31.226Z,28.67
2018-07-23T12:40:00.422Z,28.32
2018-07-23T12:42:29.544Z,27.88
2018-07-23T12:44:58.669Z,27.52
2018-07-23T12:47:27.772Z,27.18
2018-07-23T12:49:56.921Z,26.90
2018-07-23T12:52:26.010Z,26.74
2018-07-23T12:54:55.118Z,26.54
2018-07-23T12:57:24.278Z,26.35
2018-07-23T12:59:53.411Z,26.66
2018-07-23T13:02:22.534Z,27.26
2018-07-23T13:04:51.669Z,27.71
2018-07-23T13:07:20.786Z,28.00
2018-07-23T13:09:49.905Z,28.31
2018-07-23T13:12:18.993Z,28.59
2018-07-23T13:14:48.257Z,28.95
2018-07-23T13:17:17.305Z,29.16
2018-07-23T13:19:46.463Z,29.45
2018-07-23T13:22:15.606Z,29.75
2018-07-23T13:24:44.706Z,29.85
2018-07-23T13:27:13.788Z,29.96
2018-07-23T13:29:42.895Z,29.58
2018-07-23T13:32:12.120Z,29.66
2018-07-23T13:34:41.234Z,29.81
2018-07-23T13:37:10.426Z,30.00
2018-07-23T13:39:39.527Z,30.13
2018-07-23T13:42:08.665Z,30.03
2018-07-23T13:44:37.817Z,30.26
2018-07-23T13:47:07.011Z,30.14
2018-07-23T13:49:36.132Z,29.53
2018-07-23T13:52:06.338Z,29.23
2018-07-23T13:54:35.449Z,29.32
2018-07-23T13:57:04.636Z,29.16
2018-07-23T13:59:33.799Z,28.88
2018-07-23T14:02:02.943Z,28.80
2018-07-23T14:04:32.074Z,28.51
2018-07-23T14:07:01.282Z,28.38
2018-07-23T14:09:30.425Z,28.43
2018-07-23T14:11:59.529Z,28.58
2018-07-23T14:14:28.707Z,28.39
2018-07-23T14:16:57.882Z,28.40
2018-07-23T14:19:27.060Z,28.81
2018-07-23T14:21:56.167Z,29.04
2018-07-23T14:24:25.301Z,29.17
2018-07-23T14:26:54.390Z,29.26
2018-07-23T14:29:23.519Z,29.11
2018-07-23T14:31:52.829Z,28.80
2018-07-23T14:34:21.973Z,28.49
2018-07-23T14:36:51.493Z,28.18
2018-07-23T14:39:20.763Z,28.08
2018-07-23T14:41:49.886Z,27.94
2018-07-23T14:44:19.054Z,27.85
2018-07-23T14:46:48.182Z,28.04
2018-07-23T14:49:17.266Z,28.13
2018-07-23T14:51:46.551Z,28.06
2018-07-23T14:54:15.615Z,28.04
2018-07-23T14:56:44.770Z,28.12
2018-07-23T14:59:13.960Z,28.21
2018-07-23T15:01:43.056Z,28.51
2018-07-23T15:04:12.186Z,28.74
2018-07-23T15:06:41.322Z,28.93
2018-07-23T15:09:11.423Z,29.13
2018-07-23T15:11:40.516Z,29.22
2018-07-23T15:14:09.822Z,29.34
2018-07-23T15:16:39.015Z,29.39
2018-07-23T15:19:08.343Z,29.10
2018-07-23T15:21:37.825Z,28.94
2018-07-23T15:24:07.016Z,28.81
2018-07-23T15:26:36.221Z,28.72
2018-07-23T15:29:05.389Z,28.55
2018-07-23T15:31:35.009Z,28.29
2018-07-23T15:34:04.120Z,28.20
2018-07-23T15:36:33.278Z,28.00
2018-07-23T15:39:02.375Z,27.93
2018-07-23T15:41:31.465Z,27.88
2018-07-23T15:44:00.695Z,27.74
2018-07-23T15:46:29.797Z,27.75
2018-07-23T15:48:58.851Z,27.70
2018-07-23T15:51:27.977Z,27.68
2018-07-23T15:53:57.270Z,27.55
2018-07-23T15:56:26.429Z,27.43
2018-07-23T15:58:55.580Z,27.27
2018-07-23T16:01:24.873Z,27.17
2018-07-23T16:03:54.037Z,27.14
2018-07-23T16:06:23.169Z,27.10
2018-07-23T16:08:52.353Z,27.14
2018-07-23T16:11:21.442Z,27.11
2018-07-23T16:13:50.732Z,27.04
2018-07-23T16:16:20.159Z,26.72
2018-07-23T16:18:49.440Z,26.59
2018-07-23T16:21:18.614Z,26.51
2018-07-23T16:23:47.727Z,26.40
2018-07-23T16:26:16.876Z,26.34
2018-07-23T16:28:45.944Z,26.35
2018-07-23T16:31:15.049Z,26.33
2018-07-23T16:33:44.245Z,26.28
2018-07-23T16:36:13.504Z,26.28
2018-07-23T16:38:42.676Z,26.13
2018-07-23T16:41:11.768Z,26.06
2018-07-23T16:43:41.270Z,25.91
2018-07-23T16:46:10.589Z,25.85
2018-07-23T16:48:39.699Z,25.88
2018-07-23T16:51:08.977Z,25.80
2018-07-23T16:53:38.073Z,25.81
2018-07-23T16:56:07.244Z,25.81
2018-07-23T16:58:36.377Z,25.76
2018-07-23T17:01:05.501Z,25.71
2018-07-23T17:03:34.644Z,25.60
2018-07-23T17:06:04.094Z,25.50
2018-07-23T17:08:34.866Z,25.48
2018-07-23T17:11:04.063Z,25.41
2018-07-23T17:13:33.145Z,25.39
2018-07-23T17:16:02.232Z,25.29
2018-07-23T17:18:31.360Z,25.20
2018-07-23T17:21:00.532Z,25.23
2018-07-23T17:23:29.787Z,25.07
2018-07-23T17:25:58.895Z,24.96
2018-07-23T17:28:28.033Z,24.97
2018-07-23T17:30:57.144Z,24.91
2018-07-23T17:33:26.236Z,24.97
2018-07-23T17:35:55.464Z,24.88
2018-07-23T17:38:24.608Z,24.73
2018-07-23T17:40:53.695Z,24.69
2018-07-23T17:43:22.901Z,24.59
2018-07-23T17:45:52.029Z,24.54
2018-07-23T17:48:21.156Z,24.38
2018-07-23T17:50:50.272Z,24.30
2018-07-23T17:53:19.377Z,24.15
2018-07-23T17:55:48.467Z,23.94
2018-07-23T17:58:17.600Z,23.92
2018-07-23T18:00:46.740Z,23.85
2018-07-23T18:03:16.847Z,23.79
2018-07-23T18:05:46.001Z,23.66
2018-07-23T18:08:15.112Z,23.59
2018-07-23T18:10:44.250Z,23.46
2018-07-23T18:13:13.348Z,23.40
2018-07-23T18:15:42.486Z,23.41
2018-07-23T18:18:11.617Z,23.41
2018-07-23T18:20:40.767Z,23.22
2018-07-23T18:23:10.090Z,23.16
2018-07-23T18:25:39.215Z,23.10
2018-07-23T18:28:08.433Z,22.99
2018-07-23T18:30:37.533Z,22.96
2018-07-23T18:33:06.764Z,22.90
2018-07-23T18:35:35.920Z,22.86
2018-07-23T18:38:05.196Z,22.94
2018-07-23T18:40:34.260Z,22.93
2018-07-23T18:43:03.457Z,22.78
2018-07-23T18:45:32.602Z,22.69
2018-07-23T18:48:01.689Z,22.66
2018-07-23T18:50:30.824Z,22.69
2018-07-23T18:52:59.920Z,22.66
2018-07-23T18:55:29.013Z,22.56
2018-07-23T18:57:58.163Z,22.58
2018-07-23T19:00:27.298Z,22.55
2018-07-23T19:02:56.424Z,22.56
2018-07-23T19:05:25.544Z,22.53
2018-07-23T19:07:54.669Z,22.54
2018-07-23T19:10:23.761Z,22.52
2018-07-23T19:12:52.903Z,22.47
2018-07-23T19:15:21.996Z,22.54
2018-07-23T19:17:51.090Z,22.47
2018-07-23T19:20:20.259Z,22.47
2018-07-23T19:22:49.326Z,22.45
2018-07-23T19:25:18.416Z,22.41
2018-07-23T19:27:47.563Z,22.34
2018-07-23T19:30:16.816Z,22.35
2018-07-23T19:32:45.935Z,22.33
2018-07-23T19:35:15.161Z,22.29
2018-07-23T19:37:44.336Z,22.30
2018-07-23T19:40:13.577Z,22.29
2018-07-23T19:42:42.702Z,22.31
2018-07-23T19:45:11.793Z,22.28
2018-07-23T19:47:40.981Z,22.24
2018-07-23T19:50:10.080Z,22.18
2018-07-23T19:52:39.196Z,22.16
2018-07-23T19:55:08.524Z,22.09
2018-07-23T19:57:37.765Z,22.06
2018-07-23T20:00:06.878Z,22.00
2018-07-23T20:02:35.973Z,22.00
2018-07-23T20:05:05.196Z,21.97
2018-07-23T20:07:34.320Z,21.95
2018-07-23T20:10:03.496Z,21.91
2018-07-23T20:12:32.651Z,22.02
2018-07-23T20:15:01.751Z,21.94
2018-07-23T20:17:30.883Z,21.91
2018-07-23T20:20:00.027Z,21.89
2018-07-23T20:22:29.184Z,21.87
2018-07-23T20:24:58.280Z,21.86
2018-07-23T20:27:27.413Z,21.77
2018-07-23T20:29:57.075Z,21.77
2018-07-23T20:32:26.224Z,21.72
2018-07-23T20:34:55.643Z,21.70
2018-07-23T20:37:24.742Z,21.67
2018-07-23T20:39:53.901Z,21.69
2018-07-23T20:42:23.446Z,21.68
2018-07-23T20:44:53.682Z,21.69
2018-07-23T20:47:22.855Z,21.64
2018-07-23T20:49:52.096Z,21.66
2018-07-23T20:52:21.200Z,21.60
2018-07-23T20:54:50.353Z,21.60
2018-07-23T20:57:19.512Z,21.60
2018-07-23T20:59:48.605Z,21.55
2018-07-23T21:02:17.872Z,21.69
2018-07-23T21:04:46.968Z,21.58
2018-07-23T21:07:16.065Z,21.51
2018-07-23T21:09:45.732Z,21.47
2018-07-23T21:12:16.626Z,21.46
2018-07-23T21:14:47.745Z,21.40
2018-07-23T21:17:16.967Z,21.33
2018-07-23T21:19:46.109Z,21.32
2018-07-23T21:22:15.307Z,21.40
2018-07-23T21:24:44.369Z,21.31
2018-07-23T21:27:13.565Z,21.27
2018-07-23T21:29:43.007Z,21.38
2018-07-23T21:32:12.211Z,21.35
2018-07-23T21:34:41.304Z,21.32
2018-07-23T21:37:11.171Z,21.28
2018-07-23T21:39:40.321Z,21.34
2018-07-23T21:42:09.505Z,21.36
2018-07-23T21:44:38.670Z,21.28
2018-07-23T21:47:07.950Z,21.26
2018-07-23T21:49:37.129Z,21.23
2018-07-23T21:52:06.251Z,21.24
2018-07-23T21:54:35.374Z,21.22
2018-07-23T21:57:04.556Z,21.20
2018-07-23T21:59:33.738Z,21.15
2018-07-23T22:02:03.005Z,21.13
2018-07-23T22:04:32.207Z,21.10
2018-07-23T22:07:01.329Z,21.10
2018-07-23T22:09:30.488Z,21.08
2018-07-23T22:11:59.604Z,21.09
2018-07-23T22:14:28.864Z,21.06
2018-07-23T22:16:57.991Z,21.08
2018-07-23T22:19:27.090Z,21.06
2018-07-23T22:21:56.231Z,21.02
2018-07-23T22:24:25.429Z,21.03
2018-07-23T22:26:54.530Z,21.03
2018-07-23T22:29:23.672Z,21.02
2018-07-23T22:31:52.791Z,20.99
2018-07-23T22:34:21.917Z,20.99
2018-07-23T22:36:51.066Z,21.05
2018-07-23T22:39:20.168Z,21.05
2018-07-23T22:41:49.320Z,21.08
2018-07-23T22:44:18.441Z,21.07
2018-07-23T22:46:47.529Z,21.08
2018-07-23T22:49:16.633Z,21.07
2018-07-23T22:51:45.760Z,21.04
2018-07-23T22:54:14.948Z,21.05
2018-07-23T22:56:44.070Z,21.03
2018-07-23T22:59:13.310Z,19.70
2018-07-23T23:01:42.409Z,21.11
2018-07-23T23:04:11.496Z,21.06
2018-07-23T23:06:40.615Z,21.12
2018-07-23T23:09:11.459Z,21.12
2018-07-23T23:11:40.553Z,21.10
2018-07-23T23:14:09.710Z,21.05
2018-07-23T23:16:38.811Z,21.02
2018-07-23T23:19:08.132Z,20.98
2018-07-23T23:21:37.320Z,20.93
2018-07-23T23:24:06.494Z,20.97
2018-07-23T23:26:35.579Z,20.93
2018-07-23T23:29:04.864Z,20.89
2018-07-23T23:31:34.032Z,20.96
2018-07-23T23:34:03.156Z,20.87
2018-07-23T23:36:32.289Z,20.86
2018-07-23T23:39:01.445Z,20.88
2018-07-23T23:41:30.527Z,20.81
2018-07-23T23:43:59.637Z,20.80
2018-07-23T23:46:28.712Z,20.75
2018-07-23T23:48:57.812Z,20.71
2018-07-23T23:51:26.961Z,20.68
2018-07-23T23:53:56.040Z,20.72
2018-07-23T23:56:25.149Z,20.64
2018-07-23T23:58:54.367Z,20.63
